createdAt,value
2023-09-27T00:02:14.805Z,7.03
2023-09-27T00:04:41.933Z,6.60
2023-09-27T00:07:08.850Z,6.85
2023-09-27T00:09:36.252Z,6.93
2023-09-27T00:12:07.001Z,7.37
2023-09-27T00:14:34.040Z,6.90
2023-09-27T00:17:01.013Z,6.78
2023-09-27T00:19:28.014Z,6.95
2023-09-27T00:21:54.917Z,5.97
2023-09-27T00:24:21.850Z,6.37
2023-09-27T00:26:48.843Z,6.85
2023-09-27T00:29:15.772Z,6.78
2023-09-27T00:31:42.744Z,6.80
2023-09-27T00:34:09.644Z,7.30
2023-09-27T00:36:36.579Z,6.60
2023-09-27T00:39:03.550Z,6.35
2023-09-27T00:41:31.066Z,6.70
2023-09-27T00:43:58.082Z,7.12
2023-09-27T00:46:25.111Z,6.68
2023-09-27T00:48:53.180Z,7.45
2023-09-27T00:51:20.280Z,6.57
2023-09-27T00:53:48.715Z,6.68
2023-09-27T00:56:15.681Z,6.43
2023-09-27T00:58:43.137Z,6.82
2023-09-27T01:01:10.395Z,6.53
2023-09-27T01:03:38.070Z,7.00
2023-09-27T01:06:05.127Z,7.15
2023-09-27T01:08:32.197Z,6.60
2023-09-27T01:10:59.320Z,6.70
2023-09-27T01:13:26.404Z,7.12
2023-09-27T01:15:53.319Z,6.80
2023-09-27T01:18:20.345Z,7.25
2023-09-27T01:20:47.381Z,6.90
2023-09-27T01:23:14.331Z,6.87
2023-09-27T01:25:41.271Z,6.93
2023-09-27T01:28:10.063Z,6.78
2023-09-27T01:30:37.895Z,6.47
2023-09-27T01:33:06.945Z,7.57
2023-09-27T01:35:38.505Z,7.12
2023-09-27T01:38:06.497Z,6.95
2023-09-27T01:40:36.324Z,6.70
2023-09-27T01:43:04.551Z,6.75
2023-09-27T01:45:32.315Z,8.27
2023-09-27T01:48:00.551Z,6.68
2023-09-27T01:50:28.366Z,7.22
2023-09-27T01:52:56.786Z,7.37
2023-09-27T01:55:24.826Z,7.55
2023-09-27T01:57:52.102Z,6.78
2023-09-27T02:00:20.650Z,7.03
2023-09-27T02:02:51.770Z,6.60
2023-09-27T02:05:19.243Z,6.85
2023-09-27T02:07:46.322Z,6.78
2023-09-27T02:10:13.417Z,7.00
2023-09-27T02:12:40.690Z,8.18
2023-09-27T02:15:09.038Z,7.37
2023-09-27T02:17:39.123Z,7.10
2023-09-27T02:20:11.485Z,6.70
2023-09-27T02:22:39.484Z,7.40
2023-09-27T02:25:10.625Z,7.25
2023-09-27T02:27:38.183Z,7.30
2023-09-27T02:30:07.781Z,7.62
2023-09-27T02:32:35.472Z,7.12
2023-09-27T02:35:02.562Z,7.05
2023-09-27T02:37:29.618Z,7.05
2023-09-27T02:39:57.503Z,6.72
2023-09-27T02:42:24.417Z,6.50
2023-09-27T02:44:51.962Z,7.15
2023-09-27T02:47:18.950Z,6.95
2023-09-27T02:49:45.830Z,6.87
2023-09-27T02:52:12.858Z,6.37
2023-09-27T02:54:40.481Z,6.87
2023-09-27T02:57:07.395Z,6.65
2023-09-27T02:59:34.416Z,5.97
2023-09-27T03:02:01.492Z,7.55
2023-09-27T03:04:28.793Z,7.07
2023-09-27T03:06:56.537Z,6.93
2023-09-27T03:09:23.490Z,6.57
2023-09-27T03:11:50.499Z,7.15
2023-09-27T03:14:17.543Z,6.97
2023-09-27T03:16:45.186Z,6.47
2023-09-27T03:19:12.077Z,7.03
2023-09-27T03:21:39.029Z,7.05
2023-09-27T03:24:06.693Z,6.22
2023-09-27T03:26:34.176Z,7.93
2023-09-27T03:29:01.182Z,7.70
2023-09-27T03:31:28.201Z,8.38
2023-09-27T03:33:55.107Z,8.50
2023-09-27T03:36:22.043Z,8.70
2023-09-27T03:38:49.005Z,7.93
2023-09-27T03:41:15.927Z,7.25
2023-09-27T03:43:43.131Z,7.50
2023-09-27T03:46:10.076Z,8.20
2023-09-27T03:48:37.968Z,8.30
2023-09-27T03:51:05.020Z,8.13
2023-09-27T03:53:33.229Z,9.77
2023-09-27T03:56:00.296Z,8.23
2023-09-27T03:58:27.469Z,8.10
2023-09-27T04:00:54.391Z,8.52
2023-09-27T04:03:21.650Z,8.52
2023-09-27T04:05:48.659Z,7.95
2023-09-27T04:08:15.629Z,8.80
2023-09-27T04:10:42.556Z,8.70
2023-09-27T04:13:09.478Z,8.90
2023-09-27T04:15:37.032Z,8.07
2023-09-27T04:18:05.031Z,7.87
2023-09-27T04:20:34.344Z,7.68
2023-09-27T04:23:04.907Z,8.00
2023-09-27T04:25:31.851Z,7.68
2023-09-27T04:27:58.789Z,7.40
2023-09-27T04:30:26.051Z,8.15
2023-09-27T04:32:53.318Z,8.57
2023-09-27T04:35:21.434Z,7.80
2023-09-27T04:37:48.611Z,8.63
2023-09-27T04:40:15.940Z,8.35
2023-09-27T04:42:44.039Z,9.38
2023-09-27T04:45:13.216Z,8.23
2023-09-27T04:47:42.016Z,8.45
2023-09-27T04:50:12.249Z,8.27
2023-09-27T04:52:39.939Z,7.82
2023-09-27T04:55:08.614Z,8.20
2023-09-27T04:57:36.071Z,7.90
2023-09-27T05:00:04.732Z,8.27
2023-09-27T05:02:31.893Z,8.30
2023-09-27T05:04:58.982Z,8.02
2023-09-27T05:07:25.973Z,7.75
2023-09-27T05:09:53.459Z,8.60
2023-09-27T05:12:20.365Z,9.05
2023-09-27T05:14:47.303Z,9.18
2023-09-27T05:17:14.251Z,7.72
2023-09-27T05:19:46.096Z,8.38
2023-09-27T05:22:14.079Z,7.53
2023-09-27T05:24:40.993Z,6.95
2023-09-27T05:27:08.751Z,6.68
2023-09-27T05:29:36.043Z,6.97
2023-09-27T05:32:03.557Z,7.00
2023-09-27T05:34:31.866Z,7.45
2023-09-27T05:36:59.211Z,7.25
2023-09-27T05:39:26.512Z,7.50
2023-09-27T05:41:56.412Z,6.10
2023-09-27T05:44:23.642Z,6.68
2023-09-27T05:46:50.630Z,6.68
2023-09-27T05:49:18.229Z,6.47
2023-09-27T05:51:45.154Z,6.50
2023-09-27T05:54:12.176Z,7.10
2023-09-27T05:56:39.548Z,6.93
2023-09-27T05:59:10.233Z,6.72
2023-09-27T06:01:37.570Z,6.50
2023-09-27T06:04:05.241Z,6.32
2023-09-27T06:06:32.187Z,7.50
2023-09-27T06:08:59.910Z,7.45
2023-09-27T06:11:27.289Z,7.32
2023-09-27T06:13:54.194Z,7.03
2023-09-27T06:16:21.400Z,9.23
2023-09-27T06:18:48.507Z,7.70
2023-09-27T06:21:15.426Z,6.60
2023-09-27T06:23:42.522Z,6.85
2023-09-27T06:26:10.439Z,6.90
2023-09-27T06:28:40.621Z,6.72
2023-09-27T06:31:07.795Z,7.12
2023-09-27T06:33:43.548Z,6.45
2023-09-27T06:36:11.650Z,6.50
2023-09-27T06:38:38.798Z,6.40
2023-09-27T06:41:05.750Z,6.87
2023-09-27T06:43:33.007Z,6.90
2023-09-27T06:46:02.798Z,6.72
2023-09-27T06:48:30.529Z,6.72
2023-09-27T06:50:57.675Z,6.40
2023-09-27T06:53:27.108Z,7.75
2023-09-27T06:55:56.950Z,6.45
2023-09-27T06:58:26.561Z,6.68
2023-09-27T07:00:53.990Z,6.30
2023-09-27T07:03:26.678Z,6.00
2023-09-27T07:05:54.064Z,6.10
2023-09-27T07:08:21.810Z,6.22
2023-09-27T07:10:48.927Z,6.25
2023-09-27T07:13:16.380Z,7.10
2023-09-27T07:15:47.465Z,6.93
2023-09-27T07:18:14.807Z,6.50
2023-09-27T07:20:43.364Z,6.55
2023-09-27T07:23:16.220Z,7.15
2023-09-27T07:25:46.360Z,7.28
2023-09-27T07:28:13.959Z,7.05
2023-09-27T07:30:41.157Z,7.35
2023-09-27T07:33:11.108Z,6.93
2023-09-27T07:35:43.536Z,7.28
2023-09-27T07:38:12.230Z,7.82
2023-09-27T07:40:39.520Z,7.07
2023-09-27T07:43:06.721Z,7.68
2023-09-27T07:45:34.582Z,7.60
2023-09-27T07:48:02.452Z,8.13
2023-09-27T07:50:31.393Z,7.62
2023-09-27T07:53:05.030Z,7.65
2023-09-27T07:55:35.356Z,7.55
2023-09-27T07:58:05.165Z,7.28
2023-09-27T08:00:34.386Z,7.68
2023-09-27T08:03:02.025Z,6.70
2023-09-27T08:05:29.291Z,7.28
2023-09-27T08:07:56.369Z,7.28
2023-09-27T08:10:23.942Z,7.65
2023-09-27T08:12:51.135Z,7.70
2023-09-27T08:15:19.519Z,7.25
2023-09-27T08:17:49.040Z,7.75
2023-09-27T08:20:16.556Z,8.00
2023-09-27T08:22:43.651Z,7.47
2023-09-27T08:25:18.310Z,7.72
2023-09-27T08:27:46.018Z,8.10
2023-09-27T08:30:13.770Z,7.70
2023-09-27T08:32:42.750Z,7.97
2023-09-27T08:35:11.098Z,7.40
2023-09-27T08:37:38.205Z,6.95
2023-09-27T08:40:06.868Z,8.18
2023-09-27T08:42:35.193Z,7.75
2023-09-27T08:45:02.503Z,7.85
2023-09-27T08:47:31.093Z,7.45
2023-09-27T08:49:59.654Z,7.93
2023-09-27T08:52:28.451Z,7.80
2023-09-27T08:54:55.414Z,7.87
2023-09-27T08:57:23.931Z,8.75
2023-09-27T08:59:51.287Z,7.80
2023-09-27T09:02:18.409Z,7.25
2023-09-27T09:04:45.330Z,7.85
2023-09-27T09:07:13.245Z,7.25
2023-09-27T09:09:41.938Z,8.02
2023-09-27T09:12:13.256Z,7.85
2023-09-27T09:14:44.912Z,7.50
2023-09-27T09:17:12.451Z,7.25
2023-09-27T09:19:44.814Z,7.45
2023-09-27T09:22:14.505Z,7.78
2023-09-27T09:24:43.477Z,7.70
2023-09-27T09:27:13.650Z,6.05
2023-09-27T09:29:51.023Z,6.65
2023-09-27T09:32:21.030Z,6.97
2023-09-27T09:34:49.691Z,7.15
2023-09-27T09:37:21.430Z,6.30
2023-09-27T09:39:50.442Z,6.55
2023-09-27T09:42:36.017Z,6.30
2023-09-27T09:45:08.354Z,5.65
2023-09-27T09:47:38.649Z,5.80
2023-09-27T09:50:07.811Z,6.10
2023-09-27T09:52:36.941Z,5.85
2023-09-27T09:55:22.570Z,5.65
2023-09-27T09:58:01.006Z,5.47
2023-09-27T10:00:28.564Z,5.70
2023-09-27T10:03:04.079Z,5.68
2023-09-27T10:05:39.561Z,6.22
2023-09-27T10:08:07.674Z,5.72
2023-09-27T10:10:36.178Z,5.30
2023-09-27T10:13:08.379Z,5.55
2023-09-27T10:15:35.800Z,5.70
2023-09-27T10:22:07.067Z,5.37
2023-09-27T10:25:20.727Z,5.07
2023-09-27T10:28:13.696Z,5.37
2023-09-27T10:30:43.973Z,5.50
2023-09-27T10:33:31.836Z,5.95
2023-09-27T10:36:04.690Z,5.50
2023-09-27T10:38:43.931Z,5.15
2023-09-27T10:41:34.061Z,5.12
2023-09-27T10:44:02.206Z,4.97
2023-09-27T10:46:50.214Z,5.30
2023-09-27T10:49:26.467Z,5.15
2023-09-27T10:54:36.537Z,4.97
2023-09-27T10:57:26.596Z,4.50
2023-09-27T10:59:53.628Z,4.97
2023-09-27T11:02:33.125Z,4.53
2023-09-27T11:05:00.116Z,5.12
2023-09-27T11:07:43.814Z,4.80
2023-09-27T11:10:11.307Z,4.95
2023-09-27T11:12:38.564Z,4.62
2023-09-27T11:15:05.958Z,4.55
2023-09-27T11:17:33.005Z,4.93
2023-09-27T11:20:12.328Z,4.50
2023-09-27T11:22:39.281Z,5.00
2023-09-27T11:25:26.948Z,4.80
2023-09-27T11:27:54.036Z,4.78
2023-09-27T11:30:29.502Z,4.50
2023-09-27T11:32:56.858Z,5.60
2023-09-27T11:35:25.766Z,4.60
2023-09-27T11:38:13.660Z,4.82
2023-09-27T11:40:44.147Z,4.95
2023-09-27T11:43:11.717Z,4.80
2023-09-27T11:45:48.986Z,4.65
2023-09-27T11:48:17.276Z,4.80
2023-09-27T11:50:44.391Z,4.65
2023-09-27T11:53:12.352Z,4.25
2023-09-27T11:55:39.570Z,4.60
2023-09-27T11:58:06.512Z,4.30
2023-09-27T12:00:33.663Z,4.28
2023-09-27T12:03:00.699Z,4.43
2023-09-27T12:05:28.186Z,5.05
2023-09-27T12:07:56.583Z,3.83
2023-09-27T12:10:23.771Z,3.87
2023-09-27T12:12:50.794Z,3.85
2023-09-27T12:15:17.810Z,3.17
2023-09-27T12:17:45.130Z,3.45
2023-09-27T12:20:26.624Z,4.18
2023-09-27T12:22:59.504Z,3.20
2023-09-27T12:25:28.350Z,2.90
2023-09-27T12:27:55.389Z,3.50
2023-09-27T12:30:22.324Z,3.75
2023-09-27T12:32:49.365Z,3.33
2023-09-27T12:35:16.524Z,3.80
2023-09-27T12:37:43.440Z,3.60
2023-09-27T12:40:10.952Z,4.32
2023-09-27T12:42:37.847Z,4.20
2023-09-27T12:45:05.342Z,4.50
2023-09-27T12:47:33.373Z,4.50
2023-09-27T12:50:04.969Z,4.22
2023-09-27T12:52:32.469Z,3.95
2023-09-27T12:55:47.442Z,4.00
2023-09-27T12:58:14.990Z,4.00
2023-09-27T13:00:42.846Z,4.60
2023-09-27T13:03:10.162Z,3.40
2023-09-27T13:05:38.386Z,3.45
2023-09-27T13:08:06.291Z,3.22
2023-09-27T13:10:33.963Z,3.80
2023-09-27T13:13:00.890Z,3.85
2023-09-27T13:15:27.820Z,3.45
2023-09-27T13:17:55.212Z,3.22
2023-09-27T13:20:22.349Z,3.33
2023-09-27T13:22:50.376Z,3.30
2023-09-27T13:25:18.177Z,3.45
2023-09-27T13:27:45.560Z,3.53
2023-09-27T13:30:25.604Z,3.03
2023-09-27T13:33:00.980Z,3.35
2023-09-27T13:35:28.064Z,3.90
2023-09-27T13:37:54.976Z,3.37
2023-09-27T13:40:21.912Z,3.30
2023-09-27T13:42:48.830Z,3.47
2023-09-27T13:45:15.938Z,3.55
2023-09-27T13:47:43.150Z,3.47
2023-09-27T13:50:10.677Z,3.75
2023-09-27T13:52:38.190Z,4.25
2023-09-27T13:55:05.550Z,3.17
2023-09-27T13:57:33.155Z,3.70
2023-09-27T14:00:00.411Z,3.40
2023-09-27T14:02:27.455Z,3.37
2023-09-27T14:04:55.146Z,3.53
2023-09-27T14:07:22.246Z,3.72
2023-09-27T14:09:49.906Z,3.20
2023-09-27T14:12:17.052Z,3.65
2023-09-27T14:14:45.475Z,3.10
2023-09-27T14:17:13.144Z,3.50
2023-09-27T14:19:40.792Z,3.90
2023-09-27T14:22:08.427Z,3.47
2023-09-27T14:24:36.056Z,3.70
2023-09-27T14:27:03.593Z,3.33
2023-09-27T14:29:35.782Z,3.62
2023-09-27T14:32:07.314Z,4.03
2023-09-27T14:34:42.751Z,3.62
2023-09-27T14:37:23.799Z,3.35
2023-09-27T14:39:50.717Z,3.42
2023-09-27T14:42:17.621Z,3.62
2023-09-27T14:44:44.536Z,3.50
2023-09-27T14:47:11.502Z,3.45
2023-09-27T14:49:38.716Z,3.42
2023-09-27T14:52:05.736Z,3.42
2023-09-27T14:54:32.590Z,3.65
2023-09-27T14:57:00.225Z,3.95
2023-09-27T14:59:27.221Z,3.95
2023-09-27T15:01:59.071Z,3.70
2023-09-27T15:04:26.797Z,4.30
2023-09-27T15:06:54.316Z,3.80
2023-09-27T15:09:21.418Z,3.85
2023-09-27T15:11:48.315Z,4.93
2023-09-27T15:14:15.446Z,3.85
2023-09-27T15:16:42.500Z,3.30
2023-09-27T15:19:09.742Z,4.20
2023-09-27T15:21:37.768Z,3.87
2023-09-27T15:24:04.805Z,3.70
2023-09-27T15:26:54.729Z,4.12
2023-09-27T15:29:21.620Z,3.90
2023-09-27T15:31:48.611Z,4.32
2023-09-27T15:34:49.549Z,3.87
2023-09-27T15:37:35.296Z,3.97
2023-09-27T15:40:02.182Z,4.30
2023-09-27T15:42:29.036Z,4.15
2023-09-27T15:44:58.495Z,3.80
2023-09-27T15:47:25.565Z,5.85
2023-09-27T15:49:52.617Z,3.90
2023-09-27T15:52:19.622Z,4.03
2023-09-27T15:54:46.497Z,4.12
2023-09-27T15:57:13.428Z,4.20
2023-09-27T15:59:40.314Z,4.60
2023-09-27T16:02:07.382Z,4.28
2023-09-27T16:04:42.170Z,4.30
2023-09-27T16:07:16.926Z,4.28
2023-09-27T16:09:43.856Z,5.82
2023-09-27T16:12:12.571Z,4.15
2023-09-27T16:14:39.465Z,4.75
2023-09-27T16:17:06.436Z,4.70
2023-09-27T16:19:33.395Z,4.47
2023-09-27T16:22:00.312Z,4.43
2023-09-27T16:24:27.897Z,4.55
2023-09-27T16:26:54.891Z,4.30
2023-09-27T16:29:21.764Z,4.47
2023-09-27T16:31:49.535Z,4.57
2023-09-27T16:34:16.591Z,4.20
2023-09-27T16:36:45.725Z,3.92
2023-09-27T16:39:12.916Z,4.45
2023-09-27T16:41:39.860Z,4.03
2023-09-27T16:44:08.059Z,4.20
2023-09-27T16:46:37.249Z,4.15
2023-09-27T16:49:05.230Z,4.62
2023-09-27T16:51:32.496Z,4.18
2023-09-27T16:53:59.456Z,4.20
2023-09-27T16:56:28.456Z,4.30
2023-09-27T16:58:55.466Z,4.53
2023-09-27T17:01:23.048Z,4.75
2023-09-27T17:03:50.250Z,5.18
2023-09-27T17:06:19.695Z,4.70
2023-09-27T17:08:46.648Z,4.82
2023-09-27T17:11:13.521Z,4.75
2023-09-27T17:13:40.422Z,4.90
2023-09-27T17:16:08.614Z,5.18
2023-09-27T17:18:35.673Z,5.05
2023-09-27T17:21:02.647Z,5.28
2023-09-27T17:23:31.916Z,4.97
2023-09-27T17:25:59.001Z,5.72
2023-09-27T17:28:31.062Z,4.62
2023-09-27T17:30:58.076Z,5.25
2023-09-27T17:33:25.139Z,4.45
2023-09-27T17:35:52.110Z,5.22
2023-09-27T17:38:20.221Z,4.72
2023-09-27T17:40:48.858Z,5.03
2023-09-27T17:43:16.335Z,5.05
2023-09-27T17:45:43.668Z,5.30
2023-09-27T17:48:10.641Z,5.00
2023-09-27T17:50:37.753Z,5.50
2023-09-27T17:53:06.005Z,6.00
2023-09-27T17:55:33.113Z,5.70
2023-09-27T17:58:00.042Z,5.62
2023-09-27T18:00:27.508Z,5.45
2023-09-27T18:02:54.596Z,4.97
2023-09-27T18:05:21.683Z,5.30
2023-09-27T18:07:48.634Z,6.65
2023-09-27T18:10:15.605Z,5.90
2023-09-27T18:12:42.570Z,5.30
2023-09-27T18:15:25.249Z,5.75
2023-09-27T18:17:55.903Z,6.05
2023-09-27T18:20:23.025Z,6.00
2023-09-27T18:22:50.090Z,5.90
2023-09-27T18:25:17.081Z,5.90
2023-09-27T18:27:44.002Z,5.72
2023-09-27T18:30:11.395Z,6.12
2023-09-27T18:32:38.750Z,5.95
2023-09-27T18:35:06.667Z,6.47
2023-09-27T18:37:34.323Z,5.53
2023-09-27T18:40:03.566Z,6.30
2023-09-27T18:42:30.479Z,6.10
2023-09-27T18:44:57.383Z,5.93
2023-09-27T18:47:24.534Z,5.43
2023-09-27T18:49:52.138Z,5.85
2023-09-27T18:52:22.471Z,6.00
2023-09-27T18:54:53.260Z,6.18
2023-09-27T18:57:22.063Z,6.00
2023-09-27T18:59:52.469Z,6.25
2023-09-27T19:02:19.404Z,6.37
2023-09-27T19:04:46.366Z,6.18
2023-09-27T19:07:13.266Z,6.22
2023-09-27T19:09:40.175Z,6.32
2023-09-27T19:12:07.334Z,6.40
2023-09-27T19:14:34.528Z,6.47
2023-09-27T19:17:01.520Z,6.60
2023-09-27T19:19:28.430Z,6.28
2023-09-27T19:21:55.322Z,6.60
2023-09-27T19:24:22.217Z,6.25
2023-09-27T19:26:53.046Z,6.57
2023-09-27T19:29:20.035Z,5.87
2023-09-27T19:31:47.145Z,6.28
2023-09-27T19:34:16.596Z,6.15
2023-09-27T19:36:45.461Z,6.18
2023-09-27T19:39:13.784Z,6.53
2023-09-27T19:41:45.023Z,6.22
2023-09-27T19:44:12.303Z,5.97
2023-09-27T19:46:39.217Z,6.32
2023-09-27T19:49:06.216Z,6.72
2023-09-27T19:51:33.189Z,7.28
2023-09-27T19:54:03.289Z,6.00
2023-09-27T19:56:30.243Z,5.90
2023-09-27T19:58:57.290Z,5.65
2023-09-27T20:01:29.165Z,6.22
2023-09-27T20:03:56.869Z,6.00
2023-09-27T20:06:24.528Z,5.90
2023-09-27T20:08:51.571Z,6.05
2023-09-27T20:11:18.590Z,5.82
2023-09-27T20:13:45.513Z,5.93
2023-09-27T20:16:12.432Z,5.70
2023-09-27T20:18:39.350Z,6.53
2023-09-27T20:21:06.521Z,6.80
2023-09-27T20:23:33.708Z,6.37
2023-09-27T20:26:03.747Z,6.15
2023-09-27T20:28:30.675Z,6.00
2023-09-27T20:30:57.588Z,6.32
2023-09-27T20:33:25.196Z,6.10
2023-09-27T20:35:52.906Z,6.50
2023-09-27T20:38:19.757Z,7.55
2023-09-27T20:40:46.656Z,6.45
2023-09-27T20:43:13.578Z,5.87
2023-09-27T20:45:43.468Z,6.35
2023-09-27T20:48:10.514Z,6.72
2023-09-27T20:50:37.608Z,6.22
2023-09-27T20:53:04.685Z,6.10
2023-09-27T20:55:32.050Z,6.22
2023-09-27T20:58:02.671Z,5.72
2023-09-27T21:00:29.667Z,6.70
2023-09-27T21:02:57.068Z,5.93
2023-09-27T21:05:24.016Z,6.12
2023-09-27T21:07:51.438Z,5.78
2023-09-27T21:10:18.421Z,6.03
2023-09-27T21:12:45.290Z,6.87
2023-09-27T21:15:12.271Z,6.47
2023-09-27T21:17:39.162Z,7.00
2023-09-27T21:20:06.639Z,7.47
2023-09-27T21:22:33.598Z,7.40
2023-09-27T21:25:00.628Z,7.53
2023-09-27T21:27:27.521Z,6.78
2023-09-27T21:29:54.372Z,6.87
2023-09-27T21:32:22.326Z,7.80
2023-09-27T21:34:49.622Z,6.70
2023-09-27T21:37:16.587Z,6.82
2023-09-27T21:39:43.452Z,6.50
2023-09-27T21:42:10.326Z,6.10
2023-09-27T21:44:37.195Z,7.25
2023-09-27T21:47:05.013Z,6.55
2023-09-27T21:49:31.924Z,6.15
2023-09-27T21:51:58.823Z,6.57
2023-09-27T21:54:25.688Z,6.45
2023-09-27T21:56:52.582Z,6.43
2023-09-27T21:59:19.531Z,6.85
2023-09-27T22:01:46.751Z,6.10
2023-09-27T22:04:13.640Z,6.45
2023-09-27T22:06:40.530Z,6.00
2023-09-27T22:09:07.843Z,6.37
2023-09-27T22:11:34.674Z,6.45
2023-09-27T22:14:06.104Z,6.22
2023-09-27T22:16:34.039Z,6.68
2023-09-27T22:19:12.109Z,6.72
2023-09-27T22:21:44.141Z,6.25
2023-09-27T22:24:14.422Z,6.85
2023-09-27T22:26:42.831Z,6.30
2023-09-27T22:29:10.440Z,6.90
2023-09-27T22:31:40.935Z,6.65
2023-09-27T22:34:26.517Z,6.47
2023-09-27T22:36:53.914Z,6.05
2023-09-27T22:39:21.002Z,6.35
2023-09-27T22:41:49.868Z,6.15
2023-09-27T22:44:20.745Z,6.75
2023-09-27T22:46:51.883Z,6.53
2023-09-27T22:49:20.196Z,6.05
2023-09-27T22:51:47.542Z,6.70
2023-09-27T22:54:19.280Z,6.60
2023-09-27T22:56:46.976Z,6.20
2023-09-27T22:59:14.743Z,7.05
2023-09-27T23:01:44.623Z,6.90
2023-09-27T23:04:15.553Z,6.00
2023-09-27T23:07:01.794Z,6.43
2023-09-27T23:09:35.566Z,6.72
2023-09-27T23:12:32.890Z,7.07
2023-09-27T23:15:13.594Z,7.30
2023-09-27T23:18:09.709Z,6.47
2023-09-27T23:20:36.654Z,6.22
2023-09-27T23:23:13.746Z,6.80
2023-09-27T23:28:18.802Z,6.80
2023-09-27T23:30:51.459Z,6.65
2023-09-27T23:33:19.052Z,6.87
2023-09-27T23:35:46.344Z,6.62
2023-09-27T23:38:32.121Z,6.53
2023-09-27T23:40:59.827Z,6.72
2023-09-27T23:43:41.261Z,6.90
2023-09-27T23:46:15.277Z,6.97
2023-09-27T23:48:43.217Z,6.53
2023-09-27T23:51:10.124Z,7.20
2023-09-27T23:53:37.443Z,6.18
2023-09-27T23:56:07.960Z,6.55
2023-09-27T23:58:35.776Z,6.95
